Time;durP1;ratioP1;P1;durP2;ratioP2;P2;SDS_P1;SDS_P2;PMS_P1;PMS_P2;Temp;Humidity;BMP_temperature;BMP_pressure;BME280_temperature;BME280_humidity;BME280_pressure;Samples;Min_cycle;Max_cycle;Signal;HPM_P1;HPM_P2
2022/03/03 00:01:31;;;;;;;37.63;22.73;;;4.50;99.90;;;;;;5035230;28;20664;-71
2022/03/03 00:03:57;;;;;;;40.90;22.53;;;4.50;99.90;;;;;;5036481;28;20198;-70
2022/03/03 00:06:23;;;;;;;36.07;21.43;;;4.40;99.90;;;;;;5036007;28;20206;-70
2022/03/03 00:08:48;;;;;;;35.97;21.27;;;4.30;99.90;;;;;;5035180;28;20554;-70
2022/03/03 00:11:14;;;;;;;41.37;22.57;;;4.30;99.90;;;;;;5035127;28;20186;-71
2022/03/03 00:13:39;;;;;;;37.83;20.90;;;4.20;99.90;;;;;;5034645;28;20782;-71
2022/03/03 00:16:05;;;;;;;37.33;22.00;;;4.20;99.90;;;;;;5035123;28;20190;-71
2022/03/03 00:18:31;;;;;;;34.53;21.63;;;4.20;99.90;;;;;;5018472;28;20179;-71
2022/03/03 00:20:56;;;;;;;33.00;20.73;;;4.20;99.90;;;;;;5035080;28;20664;-71
2022/03/03 00:23:22;;;;;;;38.37;22.67;;;4.20;99.90;;;;;;5034414;28;20278;-71
2022/03/03 00:25:48;;;;;;;38.40;22.63;;;4.20;99.90;;;;;;5034376;28;20187;-71
2022/03/03 00:28:14;;;;;;;37.13;22.27;;;4.10;99.90;;;;;;5034746;28;20190;-71
2022/03/03 00:30:39;;;;;;;40.00;21.70;;;4.20;99.90;;;;;;5035407;28;20513;-71
2022/03/03 00:33:05;;;;;;;38.93;22.30;;;4.20;99.90;;;;;;5034251;28;20200;-71
2022/03/03 00:35:31;;;;;;;38.03;22.03;;;4.10;99.90;;;;;;5035673;28;20186;-71
2022/03/03 00:37:56;;;;;;;38.47;23.03;;;4.10;99.90;;;;;;5035898;28;20189;-71
2022/03/03 00:40:22;;;;;;;36.53;20.60;;;4.10;99.90;;;;;;5036215;28;20284;-71
2022/03/03 00:42:48;;;;;;;35.30;22.83;;;4.00;99.90;;;;;;5033955;28;20210;-71
2022/03/03 00:45:14;;;;;;;42.40;22.57;;;4.00;99.90;;;;;;5034997;28;20202;-71
2022/03/03 00:47:39;;;;;;;38.37;21.73;;;4.00;99.90;;;;;;5034354;28;20269;-71
2022/03/03 00:50:05;;;;;;;33.87;21.37;;;4.00;99.90;;;;;;5033713;28;20716;-71
2022/03/03 00:52:31;;;;;;;33.37;21.87;;;3.90;99.90;;;;;;5050858;28;20198;-71
2022/03/03 00:54:57;;;;;;;38.47;20.77;;;4.00;99.90;;;;;;5034419;28;20532;-71
2022/03/03 00:57:22;;;;;;;31.70;21.20;;;4.00;99.90;;;;;;5015016;28;20194;-71
2022/03/03 00:59:48;;;;;;;36.10;21.53;;;4.20;99.90;;;;;;5031413;28;20262;-74
2022/03/03 01:02:14;;;;;;;36.90;23.00;;;4.30;99.90;;;;;;5034578;28;20210;-70
2022/03/03 01:04:39;;;;;;;39.73;21.93;;;4.20;99.90;;;;;;5016971;28;20195;-71
2022/03/03 01:07:06;;;;;;;36.53;20.43;;;4.10;99.90;;;;;;5035098;28;20553;-70
2022/03/03 01:09:31;;;;;;;40.43;21.83;;;4.00;99.90;;;;;;5034320;28;20228;-71
2022/03/03 01:11:57;;;;;;;38.03;22.33;;;3.90;99.90;;;;;;5033968;28;20639;-71
2022/03/03 01:14:25;;;;;;;42.77;21.83;;;3.90;99.90;;;;;;5034595;28;20681;-70
2022/03/03 01:16:51;;;;;;;35.00;21.53;;;3.80;99.90;;;;;;5033995;28;20556;-71
2022/03/03 01:19:18;;;;;;;36.27;22.07;;;3.80;99.90;;;;;;5035112;28;20214;-74
2022/03/03 01:21:44;;;;;;;38.17;21.60;;;3.70;99.90;;;;;;5035635;28;20289;-71
2022/03/03 01:24:10;;;;;;;37.13;20.67;;;3.60;99.90;;;;;;5033449;28;20225;-70
2022/03/03 01:26:36;;;;;;;35.70;20.37;;;3.60;99.90;;;;;;5034081;28;20598;-70
2022/03/03 01:29:02;;;;;;;38.20;21.07;;;3.60;99.90;;;;;;5033561;28;20183;-70
2022/03/03 01:31:28;;;;;;;35.50;21.87;;;3.60;99.90;;;;;;5034088;28;20214;-70
2022/03/03 01:33:54;;;;;;;32.70;20.47;;;3.60;99.90;;;;;;5034775;28;20211;-71
2022/03/03 01:36:20;;;;;;;32.67;20.47;;;3.60;99.90;;;;;;5033512;28;20270;-70
2022/03/03 01:38:45;;;;;;;38.43;22.67;;;3.60;99.90;;;;;;5034051;28;20191;-70
2022/03/03 01:41:11;;;;;;;37.73;19.23;;;3.60;99.90;;;;;;5034679;28;20195;-71
2022/03/03 01:43:38;;;;;;;35.37;21.83;;;3.60;99.90;;;;;;5032835;28;20194;-70
2022/03/03 01:46:04;;;;;;;35.20;21.63;;;3.60;99.90;;;;;;5033271;28;20560;-71
2022/03/03 01:48:30;;;;;;;36.33;21.20;;;3.70;99.90;;;;;;5049411;28;20189;-70
2022/03/03 01:50:56;;;;;;;35.57;20.03;;;3.70;99.90;;;;;;5016213;28;20190;-71
2022/03/03 01:53:21;;;;;;;32.87;21.23;;;3.70;99.90;;;;;;5023653;28;20214;-70
2022/03/03 01:55:49;;;;;;;36.63;21.07;;;3.80;99.90;;;;;;5032901;28;20205;-71
2022/03/03 01:58:15;;;;;;;39.13;20.43;;;3.90;99.90;;;;;;5032958;28;20660;-70
2022/03/03 02:00:42;;;;;;;38.07;21.43;;;4.00;99.90;;;;;;5032969;28;20298;-71
2022/03/03 02:03:09;;;;;;;34.93;21.13;;;3.90;99.90;;;;;;5033094;28;20210;-71
2022/03/03 02:05:35;;;;;;;38.07;19.73;;;3.80;99.90;;;;;;5033183;28;20190;-71
2022/03/03 02:08:01;;;;;;;35.77;21.50;;;3.80;99.90;;;;;;5033353;28;20186;-71
2022/03/03 02:10:27;;;;;;;32.83;19.07;;;3.80;99.90;;;;;;5032960;28;20193;-71
2022/03/03 02:12:53;;;;;;;34.73;19.40;;;3.80;99.90;;;;;;5049299;28;20225;-70
2022/03/03 02:15:20;;;;;;;37.40;19.53;;;3.80;99.90;;;;;;5032315;28;20226;-70
2022/03/03 02:17:46;;;;;;;38.20;18.63;;;3.90;99.90;;;;;;5016515;28;20182;-71
2022/03/03 02:20:23;;;;;;;37.93;20.27;;;3.90;99.90;;;;;;5032831;28;20179;-70
2022/03/03 02:22:50;;;;;;;29.03;18.80;;;3.90;99.90;;;;;;5032075;28;20202;-71
2022/03/03 02:25:16;;;;;;;38.83;20.73;;;3.80;99.90;;;;;;5016155;28;20281;-70
2022/03/03 02:27:43;;;;;;;34.47;19.27;;;3.70;99.90;;;;;;5032586;28;20665;-71
2022/03/03 02:30:11;;;;;;;34.47;18.07;;;3.70;99.90;;;;;;5032153;28;20186;-70
2022/03/03 02:32:36;;;;;;;33.53;20.33;;;3.70;99.90;;;;;;5032736;28;20183;-70
2022/03/03 02:35:02;;;;;;;30.97;18.00;;;3.60;99.90;;;;;;5032416;28;20190;-70
2022/03/03 02:37:36;;;;;;;40.10;20.87;;;3.60;99.90;;;;;;5032162;28;20232;-70
2022/03/03 02:40:04;;;;;;;36.03;19.60;;;3.50;99.90;;;;;;5048500;28;20220;-73
2022/03/03 02:42:29;;;;;;;37.57;19.87;;;3.60;99.90;;;;;;5033533;28;20210;-69
2022/03/03 02:44:55;;;;;;;32.70;19.23;;;3.60;99.90;;;;;;5031532;28;20345;-69
2022/03/03 02:47:21;;;;;;;32.50;18.13;;;3.70;99.90;;;;;;5033098;28;20632;-69
2022/03/03 02:49:46;;;;;;;30.60;19.37;;;3.60;99.90;;;;;;5032708;28;20636;-70
2022/03/03 02:52:12;;;;;;;32.03;19.33;;;3.60;99.90;;;;;;5033116;28;20194;-69
2022/03/03 02:54:38;;;;;;;33.80;19.07;;;3.60;99.90;;;;;;5031846;28;20186;-70
2022/03/03 02:59:47;;;;;;;34.80;18.57;;;3.60;99.90;;;;;;5031517;28;20260;-70
2022/03/03 03:02:13;;;;;;;29.17;18.30;;;3.60;99.90;;;;;;5032420;28;20198;-70
2022/03/03 03:04:40;;;;;;;32.37;19.07;;;3.60;99.90;;;;;;5032676;28;20186;-72
2022/03/03 03:07:06;;;;;;;32.67;18.40;;;3.70;99.90;;;;;;5015571;28;20321;-70
2022/03/03 03:09:32;;;;;;;33.30;18.83;;;3.60;99.90;;;;;;5031406;28;20194;-70
2022/03/03 03:11:57;;;;;;;37.73;20.80;;;3.50;99.90;;;;;;5033016;28;20262;-70
2022/03/03 03:14:23;;;;;;;30.73;18.17;;;3.40;99.90;;;;;;5032990;28;20202;-70
2022/03/03 03:16:49;;;;;;;30.93;19.53;;;3.40;99.90;;;;;;5032962;28;20189;-70
2022/03/03 03:19:15;;;;;;;38.53;19.67;;;3.40;99.90;;;;;;5032622;28;20214;-70
2022/03/03 03:21:40;;;;;;;32.70;17.73;;;3.40;99.90;;;;;;5015354;28;20265;-70
2022/03/03 03:24:06;;;;;;;37.53;19.77;;;3.30;99.90;;;;;;5014697;28;20281;-75
2022/03/03 03:26:32;;;;;;;34.80;20.00;;;3.30;99.90;;;;;;5046969;28;20194;-70
2022/03/03 03:28:58;;;;;;;36.37;18.93;;;3.20;99.90;;;;;;5031391;28;20175;-70
2022/03/03 03:31:23;;;;;;;30.30;18.90;;;3.30;99.90;;;;;;5033117;28;20187;-70
2022/03/03 03:33:49;;;;;;;28.23;17.63;;;3.50;99.90;;;;;;5015158;28;20191;-70
2022/03/03 03:36:15;;;;;;;30.47;18.77;;;3.50;99.90;;;;;;5031255;28;20554;-70
2022/03/03 03:38:40;;;;;;;35.20;20.43;;;3.40;99.90;;;;;;5014941;28;20653;-70
2022/03/03 03:41:06;;;;;;;27.03;18.03;;;3.30;99.90;;;;;;5032660;28;20178;-70
2022/03/03 03:43:33;;;;;;;31.07;17.70;;;3.20;99.90;;;;;;5018788;28;20198;-71
2022/03/03 03:45:58;;;;;;;35.83;18.93;;;3.10;99.90;;;;;;5012053;28;20583;-71
2022/03/03 03:48:24;;;;;;;33.37;18.53;;;3.10;99.90;;;;;;5030937;28;20248;-71
2022/03/03 03:50:50;;;;;;;29.43;17.83;;;3.00;99.90;;;;;;5032213;28;20221;-74
2022/03/03 03:53:16;;;;;;;30.67;18.30;;;3.00;99.90;;;;;;5031167;28;20652;-70
2022/03/03 03:55:42;;;;;;;33.43;19.50;;;2.90;99.90;;;;;;5047356;28;20201;-69
2022/03/03 03:58:07;;;;;;;30.60;18.00;;;2.90;99.90;;;;;;5032490;28;20185;-70
2022/03/03 04:00:33;;;;;;;29.90;17.70;;;2.90;99.90;;;;;;5031063;28;20272;-70
2022/03/03 04:02:59;;;;;;;33.00;18.87;;;2.90;99.90;;;;;;5031207;28;20325;-70
2022/03/03 04:05:25;;;;;;;30.13;17.53;;;2.90;99.90;;;;;;5031942;28;20201;-70
2022/03/03 04:07:51;;;;;;;29.80;19.17;;;2.90;99.90;;;;;;5031240;28;20233;-69
2022/03/03 04:10:17;;;;;;;34.63;17.87;;;2.80;99.90;;;;;;5031580;28;20587;-69
2022/03/03 04:12:42;;;;;;;31.20;17.03;;;2.70;99.90;;;;;;5031841;28;20187;-69
2022/03/03 04:15:09;;;;;;;33.77;19.23;;;2.80;99.90;;;;;;5032197;28;20210;-69
2022/03/03 04:17:35;;;;;;;30.87;18.67;;;2.70;99.90;;;;;;5047043;28;20200;-69
2022/03/03 04:20:02;;;;;;;31.67;18.13;;;2.70;99.90;;;;;;5031045;28;20270;-70
2022/03/03 04:22:27;;;;;;;35.50;17.90;;;2.70;99.90;;;;;;5031974;28;20206;-70
2022/03/03 04:24:53;;;;;;;31.53;18.53;;;2.70;99.90;;;;;;5030908;28;20197;-70
2022/03/03 04:27:19;;;;;;;27.90;17.23;;;2.60;99.90;;;;;;5031107;28;20183;-69
2022/03/03 04:29:45;;;;;;;35.90;18.23;;;2.60;99.90;;;;;;5047529;28;20191;-69
2022/03/03 04:32:11;;;;;;;27.87;16.67;;;2.60;99.90;;;;;;5032171;28;20191;-69
2022/03/03 04:34:37;;;;;;;35.00;18.70;;;2.60;99.90;;;;;;5030743;28;20194;-70
2022/03/03 04:37:03;;;;;;;35.73;19.67;;;2.70;99.90;;;;;;5031216;28;20186;-70
2022/03/03 04:39:28;;;;;;;31.10;17.80;;;2.80;99.90;;;;;;5033635;28;20547;-70
2022/03/03 04:41:54;;;;;;;33.40;17.60;;;2.90;99.90;;;;;;5018441;28;20208;-69
2022/03/03 04:44:20;;;;;;;33.27;19.47;;;2.90;99.90;;;;;;5035896;28;20545;-70
2022/03/03 04:46:46;;;;;;;29.77;17.67;;;2.80;99.90;;;;;;5034624;28;20224;-69
2022/03/03 04:49:12;;;;;;;37.73;18.17;;;2.70;99.90;;;;;;5035364;28;20270;-69
2022/03/03 04:51:39;;;;;;;29.70;17.67;;;2.60;99.90;;;;;;5035563;28;20248;-69
2022/03/03 04:54:06;;;;;;;28.03;18.33;;;2.50;99.90;;;;;;5050963;28;20214;-69
2022/03/03 04:56:33;;;;;;;28.57;17.33;;;2.40;99.90;;;;;;5034590;28;20192;-69
2022/03/03 04:58:59;;;;;;;34.40;18.87;;;2.50;99.90;;;;;;5034881;28;20213;-69
2022/03/03 05:01:24;;;;;;;38.87;20.97;;;2.50;99.90;;;;;;5050742;28;20174;-70
2022/03/03 05:03:50;;;;;;;32.20;18.47;;;2.50;99.90;;;;;;5035075;28;20205;-69
2022/03/03 05:06:17;;;;;;;27.57;16.83;;;2.40;99.90;;;;;;5034305;28;20273;-69
2022/03/03 05:08:43;;;;;;;31.87;20.67;;;2.30;99.90;;;;;;5033856;28;20179;-70
2022/03/03 05:11:08;;;;;;;30.43;17.53;;;2.30;99.90;;;;;;5034159;28;20191;-69
2022/03/03 05:13:35;;;;;;;34.73;18.20;;;2.20;99.90;;;;;;5033544;28;20711;-69
2022/03/03 05:16:01;;;;;;;26.60;15.93;;;2.20;99.90;;;;;;5034006;28;20659;-69
2022/03/03 05:18:26;;;;;;;30.63;17.27;;;2.20;99.90;;;;;;5033121;28;20213;-70
2022/03/03 05:20:52;;;;;;;32.67;18.03;;;2.20;99.90;;;;;;5034726;28;20875;-69
2022/03/03 05:23:17;;;;;;;31.93;19.23;;;2.20;99.90;;;;;;5033837;28;20221;-69
2022/03/03 05:25:43;;;;;;;28.77;16.47;;;2.30;99.90;;;;;;5016669;28;20644;-70
2022/03/03 05:28:09;;;;;;;36.73;18.50;;;2.30;99.90;;;;;;5050721;28;20193;-70
2022/03/03 05:30:34;;;;;;;34.80;18.83;;;2.50;99.90;;;;;;5030023;28;20519;-73
2022/03/03 05:33:00;;;;;;;31.43;19.57;;;2.40;99.90;;;;;;5025168;28;20190;-71
2022/03/03 05:35:26;;;;;;;31.57;17.30;;;2.40;99.90;;;;;;5032854;28;20191;-69
2022/03/03 05:37:51;;;;;;;30.30;18.33;;;2.50;99.90;;;;;;5034972;28;20190;-69
2022/03/03 05:40:17;;;;;;;37.83;18.23;;;2.40;99.90;;;;;;5034331;28;20200;-69
2022/03/03 05:42:43;;;;;;;30.87;17.50;;;2.40;99.90;;;;;;5049375;28;20217;-69
2022/03/03 05:45:10;;;;;;;36.90;17.93;;;2.40;99.90;;;;;;5033859;28;20194;-69
2022/03/03 05:47:36;;;;;;;32.40;19.63;;;2.50;99.90;;;;;;5033537;28;20191;-69
2022/03/03 05:50:04;;;;;;;31.83;18.27;;;2.30;99.90;;;;;;5048577;28;20182;-69
2022/03/03 05:52:30;;;;;;;37.47;21.50;;;2.30;99.90;;;;;;5033571;28;20186;-69
2022/03/03 05:54:56;;;;;;;34.20;20.23;;;2.40;99.90;;;;;;5030469;28;20186;-69
2022/03/03 05:57:27;;;;;;;31.97;18.33;;;2.40;99.90;;;;;;5029462;28;20661;-68
2022/03/03 05:59:57;;;;;;;31.67;18.53;;;2.40;99.90;;;;;;5034686;28;20185;-68
2022/03/03 06:02:23;;;;;;;35.80;17.73;;;2.30;99.90;;;;;;5033703;28;20198;-69
2022/03/03 06:04:50;;;;;;;32.60;18.23;;;2.30;99.90;;;;;;5034494;28;20190;-68
2022/03/03 06:07:23;;;;;;;31.97;17.33;;;2.40;99.90;;;;;;5033343;28;20663;-70
2022/03/03 06:09:52;;;;;;;36.03;18.63;;;2.60;99.90;;;;;;5033025;28;20187;-71
2022/03/03 06:12:39;;;;;;;33.07;18.20;;;2.50;99.90;;;;;;5044621;28;20186;-69
2022/03/03 06:15:06;;;;;;;37.53;19.67;;;2.40;99.90;;;;;;5047258;28;20203;-69
2022/03/03 06:17:34;;;;;;;36.20;20.37;;;2.40;99.90;;;;;;5033940;28;20540;-69
2022/03/03 06:20:01;;;;;;;34.90;18.77;;;2.40;99.90;;;;;;5048829;28;20278;-68
2022/03/03 06:22:27;;;;;;;37.07;19.73;;;2.60;99.90;;;;;;5033828;28;20260;-68
2022/03/03 06:24:53;;;;;;;30.70;16.07;;;2.50;99.90;;;;;;5033366;28;20654;-70
2022/03/03 06:27:19;;;;;;;35.83;18.30;;;2.40;99.90;;;;;;5032523;28;20538;-69
2022/03/03 06:29:45;;;;;;;34.30;18.77;;;2.30;99.90;;;;;;5033443;28;20664;-70
2022/03/03 06:32:11;;;;;;;30.17;17.70;;;2.30;99.90;;;;;;5047933;28;20868;-70
2022/03/03 06:34:37;;;;;;;34.60;16.37;;;2.30;99.90;;;;;;5032138;28;20175;-70
2022/03/03 06:37:04;;;;;;;31.40;17.13;;;2.20;99.90;;;;;;5033403;28;20175;-70
2022/03/03 06:39:29;;;;;;;40.07;20.73;;;2.20;99.90;;;;;;5033105;28;20650;-71
2022/03/03 06:41:55;;;;;;;35.13;18.10;;;2.20;99.90;;;;;;5033849;28;20216;-69
2022/03/03 06:44:21;;;;;;;29.40;17.83;;;2.30;99.90;;;;;;5032567;28;20194;-72
2022/03/03 06:46:47;;;;;;;35.23;18.10;;;2.30;99.90;;;;;;5033224;28;20645;-69
2022/03/03 06:49:13;;;;;;;32.53;19.33;;;2.30;99.90;;;;;;5031352;28;20276;-69
2022/03/03 06:51:44;;;;;;;30.67;16.43;;;2.30;99.90;;;;;;5033471;28;20186;-69
2022/03/03 06:54:18;;;;;;;29.63;18.13;;;2.30;99.90;;;;;;5048662;28;20218;-78
2022/03/03 06:56:49;;;;;;;31.47;16.97;;;2.40;99.90;;;;;;5031986;28;20542;-77
2022/03/03 06:59:17;;;;;;;31.67;17.50;;;2.40;99.90;;;;;;5031516;28;20179;-77
2022/03/03 07:01:44;;;;;;;38.83;19.33;;;2.50;99.90;;;;;;5031938;28;20210;-76
2022/03/03 07:04:13;;;;;;;31.13;17.27;;;2.60;99.90;;;;;;5031339;28;20182;-79
2022/03/03 07:06:39;;;;;;;30.13;16.30;;;2.60;99.90;;;;;;5033141;28;20187;-79
2022/03/03 07:09:05;;;;;;;30.83;18.37;;;2.70;99.90;;;;;;5031734;28;20545;-79
2022/03/03 07:11:31;;;;;;;34.60;17.37;;;2.70;99.90;;;;;;5030286;28;20272;-76
2022/03/03 07:13:58;;;;;;;32.30;18.67;;;2.80;99.90;;;;;;5030566;28;20283;-76
2022/03/03 07:16:39;;;;;;;33.93;20.30;;;2.80;99.90;;;;;;5046508;28;20187;-76
2022/03/03 07:19:14;;;;;;;33.70;18.27;;;2.90;99.90;;;;;;5030369;28;20201;-76
2022/03/03 07:21:55;;;;;;;34.03;18.90;;;3.00;99.90;;;;;;5030736;28;20202;-77
2022/03/03 07:24:33;;;;;;;37.07;19.00;;;3.10;99.90;;;;;;5048141;28;20187;-75
2022/03/03 07:27:04;;;;;;;28.60;18.47;;;3.20;99.90;;;;;;5031193;28;20297;-74
2022/03/03 07:29:32;;;;;;;36.60;18.77;;;3.30;99.90;;;;;;5031221;28;20191;-77
2022/03/03 07:32:03;;;;;;;37.20;19.57;;;4.00;99.90;;;;;;5047844;28;20209;-77
2022/03/03 07:34:32;;;;;;;31.80;18.20;;;5.40;99.90;;;;;;5032024;28;20182;-78
2022/03/03 07:37:07;;;;;;;28.63;16.37;;;6.80;99.90;;;;;;5032660;28;20186;-76
2022/03/03 07:39:42;;;;;;;31.73;17.50;;;8.00;99.90;;;;;;5032586;28;20261;-77
2022/03/03 07:42:15;;;;;;;33.43;18.47;;;8.90;99.90;;;;;;5030983;28;20256;-76
2022/03/03 07:44:41;;;;;;;30.10;16.57;;;10.00;99.90;;;;;;5031438;28;20191;-77
2022/03/03 07:47:08;;;;;;;25.10;16.17;;;10.70;99.90;;;;;;5031222;28;20182;-77
2022/03/03 07:49:34;;;;;;;28.63;17.47;;;11.20;99.90;;;;;;5031246;28;20182;-81
2022/03/03 07:52:03;;;;;;;30.80;17.47;;;10.80;99.90;;;;;;5032064;28;20186;-71
2022/03/03 07:54:29;;;;;;;32.33;17.57;;;11.30;99.90;;;;;;5048550;28;20209;-72
2022/03/03 07:57:00;;;;;;;28.47;17.83;;;11.60;99.90;;;;;;5028720;28;20186;-72
2022/03/03 07:59:34;;;;;;;29.50;17.27;;;11.20;99.90;;;;;;5031310;28;20178;-73
2022/03/03 08:02:03;;;;;;;27.30;16.53;;;11.00;99.90;;;;;;5031063;28;20212;-71
2022/03/03 08:04:32;;;;;;;29.83;17.13;;;10.40;99.90;;;;;;5032498;28;20266;-70
2022/03/03 08:07:05;;;;;;;23.73;16.23;;;10.40;99.90;;;;;;5031242;28;20209;-72
2022/03/03 08:09:34;;;;;;;22.50;16.13;;;10.70;99.90;;;;;;5046743;28;20525;-72
2022/03/03 08:12:05;;;;;;;27.97;16.37;;;10.90;99.90;;;;;;5025671;28;20631;-71
2022/03/03 08:14:32;;;;;;;27.97;16.33;;;11.10;99.90;;;;;;5051629;28;20288;-71
2022/03/03 08:16:58;;;;;;;25.10;16.07;;;11.00;99.90;;;;;;5036312;28;20179;-71
2022/03/03 08:19:24;;;;;;;26.60;15.98;;;11.50;99.90;;;;;;5017955;28;20179;-72
2022/03/03 08:21:50;;;;;;;22.95;16.60;;;11.30;99.90;;;;;;5035700;28;20692;-71
2022/03/03 08:24:16;;;;;;;25.83;17.48;;;11.30;99.90;;;;;;5036115;28;20195;-72
2022/03/03 08:26:44;;;;;;;28.35;17.55;;;11.90;99.90;;;;;;5035632;28;20632;-70
2022/03/03 08:29:11;;;;;;;29.10;17.33;;;12.10;99.90;;;;;;5018653;28;20190;-71
2022/03/03 08:31:42;;;;;;;29.30;15.93;;;11.60;99.90;;;;;;5018399;28;20190;-76
2022/03/03 08:34:33;;;;;;;27.13;16.33;;;11.10;99.90;;;;;;5035292;28;20278;-72
2022/03/03 08:37:02;;;;;;;26.17;15.07;;;9.80;99.90;;;;;;5035953;28;20635;-71
2022/03/03 08:39:29;;;;;;;26.53;15.90;;;9.40;99.90;;;;;;5036098;28;20182;-74
2022/03/03 08:41:56;;;;;;;27.60;17.00;;;9.40;99.90;;;;;;5034881;28;20221;-72
2022/03/03 08:44:27;;;;;;;29.67;17.23;;;9.00;99.90;;;;;;5050573;28;20666;-72
2022/03/03 08:46:56;;;;;;;23.77;16.20;;;8.50;99.90;;;;;;5034539;28;20771;-72
2022/03/03 08:49:29;;;;;;;29.60;17.13;;;8.20;99.90;;;;;;5035663;28;20186;-72
2022/03/03 08:51:56;;;;;;;26.53;16.13;;;8.00;99.90;;;;;;5051077;28;20178;-72
2022/03/03 08:54:22;;;;;;;26.07;16.60;;;7.90;99.90;;;;;;5035792;28;20233;-72
2022/03/03 08:56:48;;;;;;;26.63;17.30;;;8.00;99.90;;;;;;5050036;28;20208;-72
2022/03/03 08:59:13;;;;;;;25.63;15.40;;;7.80;99.90;;;;;;5035767;28;20265;-72
2022/03/03 09:01:39;;;;;;;30.83;17.70;;;7.80;99.90;;;;;;5034523;28;20214;-72
2022/03/03 09:04:06;;;;;;;27.30;15.93;;;7.80;99.90;;;;;;5035155;28;20187;-72
2022/03/03 09:06:32;;;;;;;25.57;15.80;;;7.90;99.90;;;;;;5034823;28;20193;-72
2022/03/03 09:08:58;;;;;;;29.70;16.07;;;8.00;99.90;;;;;;5034198;28;20272;-73
2022/03/03 09:11:24;;;;;;;24.23;17.10;;;8.20;99.90;;;;;;5035189;28;20270;-72
2022/03/03 09:13:51;;;;;;;26.93;17.07;;;8.50;99.90;;;;;;5033884;28;20206;-73
2022/03/03 09:16:17;;;;;;;28.47;16.07;;;8.40;99.90;;;;;;5034179;28;20225;-72
2022/03/03 09:18:46;;;;;;;24.80;14.77;;;8.30;99.90;;;;;;5035035;28;20194;-72
2022/03/03 09:21:11;;;;;;;23.83;15.37;;;8.20;99.90;;;;;;5035460;28;20194;-72
2022/03/03 09:23:37;;;;;;;24.43;15.67;;;8.30;99.90;;;;;;5032740;28;20702;-73
2022/03/03 09:26:04;;;;;;;26.23;15.80;;;8.40;99.90;;;;;;5033589;28;20266;-73
2022/03/03 09:28:30;;;;;;;29.93;16.83;;;8.50;99.90;;;;;;5034915;28;20201;-73
2022/03/03 09:30:56;;;;;;;25.40;15.50;;;8.50;99.90;;;;;;5033714;28;20624;-72
2022/03/03 09:33:25;;;;;;;23.47;14.00;;;8.50;99.90;;;;;;5035033;28;20182;-72
2022/03/03 09:35:51;;;;;;;28.33;16.30;;;8.40;99.90;;;;;;5033005;28;20550;-72
2022/03/03 09:38:17;;;;;;;27.40;15.33;;;8.50;99.90;;;;;;5034616;28;20278;-72
2022/03/03 09:40:48;;;;;;;30.70;17.27;;;8.60;99.90;;;;;;5033559;28;20190;-73
2022/03/03 09:43:14;;;;;;;29.97;16.27;;;8.60;99.90;;;;;;5033556;28;20335;-72
2022/03/03 09:45:40;;;;;;;29.87;17.40;;;8.80;99.90;;;;;;5034046;28;20195;-73
2022/03/03 09:48:07;;;;;;;31.97;17.03;;;8.80;99.90;;;;;;5018419;28;20178;-72
2022/03/03 09:50:38;;;;;;;29.77;18.33;;;8.90;99.90;;;;;;5034307;28;20584;-73
2022/03/03 09:53:17;;;;;;;30.47;16.73;;;8.90;99.90;;;;;;5034828;28;20190;-71
2022/03/03 09:55:44;;;;;;;29.80;17.53;;;9.00;99.90;;;;;;5035047;28;20175;-73
2022/03/03 09:58:10;;;;;;;26.63;16.37;;;8.90;99.90;;;;;;5029809;28;20572;-73
2022/03/03 10:00:40;;;;;;;25.67;16.00;;;8.90;99.90;;;;;;5013308;28;20191;-74
2022/03/03 10:03:10;;;;;;;27.23;15.83;;;9.10;99.90;;;;;;5028720;28;20210;-74
2022/03/03 10:05:39;;;;;;;25.77;14.90;;;9.10;99.90;;;;;;5021360;28;20183;-74
2022/03/03 10:08:12;;;;;;;26.00;16.70;;;9.10;99.90;;;;;;5047853;28;20189;-75
2022/03/03 10:10:49;;;;;;;23.60;15.13;;;9.10;99.90;;;;;;5029625;28;20687;-75
2022/03/03 10:13:19;;;;;;;29.70;16.20;;;9.00;99.90;;;;;;5031148;28;20206;-75
2022/03/03 10:15:53;;;;;;;25.87;17.23;;;8.90;99.90;;;;;;5032693;28;20198;-75
2022/03/03 10:18:20;;;;;;;28.90;15.87;;;8.70;99.90;;;;;;5033378;28;20174;-76
2022/03/03 10:20:49;;;;;;;27.90;16.00;;;8.60;99.90;;;;;;5032829;28;20189;-76
2022/03/03 10:23:15;;;;;;;25.17;14.63;;;8.70;99.90;;;;;;5034028;28;20628;-73
2022/03/03 10:25:44;;;;;;;27.03;16.27;;;8.70;99.90;;;;;;5033852;28;20241;-71
2022/03/03 10:28:27;;;;;;;28.17;14.63;;;8.60;99.90;;;;;;5032989;28;20222;-71
2022/03/03 10:31:15;;;;;;;26.67;14.83;;;8.60;99.90;;;;;;5033878;28;20257;-74
2022/03/03 10:33:47;;;;;;;31.37;14.93;;;8.70;99.90;;;;;;5034589;28;20643;-73
2022/03/03 10:36:16;;;;;;;29.77;15.97;;;9.00;99.90;;;;;;5033582;28;20183;-73
2022/03/03 10:38:57;;;;;;;36.07;16.60;;;9.30;99.90;;;;;;5033625;28;20210;-71
2022/03/03 10:41:31;;;;;;;30.33;17.30;;;9.50;99.90;;;;;;5032480;28;20222;-73
2022/03/03 10:43:58;;;;;;;24.03;15.07;;;9.40;99.90;;;;;;5033107;28;20194;-70
2022/03/03 10:46:24;;;;;;;28.03;16.77;;;9.40;99.90;;;;;;5033496;28;20644;-74
2022/03/03 10:48:50;;;;;;;30.50;17.37;;;9.20;99.90;;;;;;5033369;28;20686;-72
2022/03/03 10:51:16;;;;;;;25.03;16.57;;;9.20;99.90;;;;;;5033700;28;20199;-73
2022/03/03 10:53:42;;;;;;;28.90;16.50;;;9.20;99.90;;;;;;5032112;28;20490;-72
2022/03/03 10:56:15;;;;;;;26.07;15.70;;;9.40;99.90;;;;;;5033200;28;20187;-73
2022/03/03 10:58:57;;;;;;;30.60;16.17;;;9.70;99.90;;;;;;5032535;28;20179;-73
2022/03/03 11:01:27;;;;;;;34.53;17.30;;;9.80;99.90;;;;;;5033257;28;20182;-73
2022/03/03 11:03:53;;;;;;;30.00;16.60;;;9.70;99.90;;;;;;5032837;28;20253;-72
2022/03/03 11:06:25;;;;;;;29.10;17.30;;;9.60;99.90;;;;;;5048634;28;20186;-71
2022/03/03 11:08:53;;;;;;;29.03;16.60;;;9.70;99.90;;;;;;5033475;28;20270;-72
2022/03/03 11:11:19;;;;;;;27.80;16.93;;;9.90;99.90;;;;;;5047965;28;20632;-71
2022/03/03 11:13:47;;;;;;;27.03;18.43;;;9.80;99.90;;;;;;5031665;28;20190;-72
2022/03/03 11:16:19;;;;;;;26.33;17.23;;;9.90;99.90;;;;;;5031643;28;20186;-70
2022/03/03 11:18:45;;;;;;;32.20;17.53;;;10.00;99.90;;;;;;5032304;28;20190;-73
2022/03/03 11:21:12;;;;;;;28.77;18.60;;;10.00;99.90;;;;;;5033120;28;20587;-72
2022/03/03 11:23:54;;;;;;;34.70;17.43;;;10.00;99.90;;;;;;5032461;28;20217;-70
2022/03/03 11:26:34;;;;;;;42.03;19.60;;;10.10;99.90;;;;;;5032973;28;20240;-67
2022/03/03 11:29:11;;;;;;;29.30;17.00;;;10.20;99.90;;;;;;5032861;28;20189;-69
2022/03/03 11:31:37;;;;;;;38.87;19.27;;;10.20;99.90;;;;;;5032863;28;20178;-68
2022/03/03 11:34:30;;;;;;;30.57;18.10;;;10.20;99.90;;;;;;5031489;28;20182;-68
2022/03/03 11:37:21;;;;;;;25.83;15.53;;;10.20;99.90;;;;;;5029526;28;20555;-67
2022/03/03 11:39:52;;;;;;;23.23;15.07;;;10.30;99.90;;;;;;5031129;28;20186;-70
2022/03/03 11:42:35;;;;;;;32.23;17.77;;;10.50;99.90;;;;;;5024008;28;20264;-70
2022/03/03 11:45:13;;;;;;;27.47;17.90;;;10.80;99.90;;;;;;5031194;28;20273;-69
2022/03/03 11:47:42;;;;;;;30.33;16.43;;;10.70;99.90;;;;;;5030609;28;20635;-69
2022/03/03 11:50:16;;;;;;;27.00;16.83;;;10.80;99.90;;;;;;5031420;28;20186;-69
2022/03/03 11:52:45;;;;;;;29.23;16.50;;;10.80;99.90;;;;;;5032717;28;20186;-69
2022/03/03 11:55:28;;;;;;;29.67;17.87;;;10.70;99.90;;;;;;5032374;28;20201;-67
2022/03/03 11:58:12;;;;;;;29.80;16.70;;;10.70;99.90;;;;;;5019849;28;20268;-67
2022/03/03 12:00:47;;;;;;;31.70;17.77;;;10.80;99.90;;;;;;5032783;28;20166;-74
2022/03/03 12:03:22;;;;;;;27.97;17.17;;;11.20;99.90;;;;;;5015600;28;20205;-70
2022/03/03 12:06:09;;;;;;;28.83;16.00;;;11.50;99.90;;;;;;5031047;28;20186;-70
2022/03/03 12:08:37;;;;;;;35.47;17.97;;;11.50;99.90;;;;;;5032962;28;20224;-70
2022/03/03 12:11:15;;;;;;;26.60;17.10;;;11.60;99.90;;;;;;5032476;28;20257;-69
2022/03/03 12:13:41;;;;;;;28.63;17.23;;;11.90;99.90;;;;;;5032318;28;20206;-70
2022/03/03 12:16:35;;;;;;;27.77;16.93;;;11.60;99.90;;;;;;5031908;28;20265;-70
2022/03/03 12:19:01;;;;;;;27.43;16.43;;;11.50;99.90;;;;;;5047036;28;20206;-69
2022/03/03 12:21:26;;;;;;;32.07;18.63;;;11.80;99.90;;;;;;5032045;28;20221;-70
2022/03/03 12:24:14;;;;;;;28.33;16.52;;;11.90;99.90;;;;;;5032125;28;20217;-71
2022/03/03 12:26:58;;;;;;;27.55;16.95;;;11.90;99.90;;;;;;5046929;28;20644;-70
2022/03/03 12:29:35;;;;;;;29.52;17.63;;;12.00;99.90;;;;;;5031381;28;20539;-70
2022/03/03 12:32:28;;;;;;;28.87;17.70;;;12.20;99.90;;;;;;5031666;28;20182;-70
2022/03/03 12:34:56;;;;;;;26.10;17.85;;;12.40;99.90;;;;;;5030832;28;20273;-68
2022/03/03 12:37:22;;;;;;;37.33;17.95;;;12.60;99.90;;;;;;5047469;28;20600;-68
2022/03/03 12:39:53;;;;;;;28.88;16.80;;;12.60;99.90;;;;;;5032094;28;20262;-70
2022/03/03 12:42:21;;;;;;;28.52;17.45;;;12.60;99.90;;;;;;5031459;28;20210;-69
2022/03/03 12:44:54;;;;;;;30.90;17.83;;;12.40;99.90;;;;;;5030426;28;20197;-71